Time;durP1;ratioP1;P1;durP2;ratioP2;P2;SDS_P1;SDS_P2;PMS_P1;PMS_P2;Temp;Humidity;BMP_temperature;BMP_pressure;BME280_temperature;BME280_humidity;BME280_pressure;Samples;Min_cycle;Max_cycle;Signal;HPM_P1;HPM_P2
2022/07/31 00:02:21;;;;;;;;;;;;;;;18.80;79.04;99368.78;4993447;28;893;-66
2022/07/31 00:04:48;;;;;;;;;;;;;;;18.72;79.17;99371.88;4993290;28;800;-66
2022/07/31 00:07:14;;;;;;;;;;;;;;;18.65;79.46;99379.81;4993367;28;851;-66
2022/07/31 00:09:41;;;;;;;;;;;;;;;18.67;79.86;99386.53;4993238;28;1882;-66
2022/07/31 00:12:08;;;;;;;;;;;;;;;18.77;80.76;99379.63;4993206;28;815;-66
2022/07/31 00:14:34;;;;;;;;;;;;;;;18.86;81.43;99378.91;4993143;28;847;-66
2022/07/31 00:17:01;;;;;;;;;;;;;;;18.91;81.63;99375.47;4993162;28;901;-66
2022/07/31 00:19:28;;;;;;;;;;;;;;;18.92;81.83;99379.78;4975532;28;1297;-65
2022/07/31 00:21:54;;;;;;;;;;;;;;;18.87;81.97;99374.84;4993028;28;839;-66
2022/07/31 00:24:21;;;;;;;;;;;;;;;18.83;82.25;99381.84;4993072;28;863;-66
2022/07/31 00:26:48;;;;;;;;;;;;;;;18.79;82.28;99378.44;4992943;28;815;-66
2022/07/31 00:29:14;;;;;;;;;;;;;;;18.84;82.44;99381.41;4992834;28;1887;-66
2022/07/31 00:31:41;;;;;;;;;;;;;;;18.94;82.41;99379.34;4992902;28;904;-66
2022/07/31 00:34:08;;;;;;;;;;;;;;;18.99;82.13;99364.72;4993233;28;888;-66
2022/07/31 00:36:34;;;;;;;;;;;;;;;19.00;82.17;99374.66;4992607;28;1236;-66
2022/07/31 00:39:01;;;;;;;;;;;;;;;18.93;82.29;99367.38;4992770;28;800;-66
2022/07/31 00:41:44;;;;;;;;;;;;;;;18.85;82.49;99362.56;4992706;28;831;-66
2022/07/31 00:44:11;;;;;;;;;;;;;;;18.79;82.69;99368.00;4992640;28;854;-66
2022/07/31 00:46:38;;;;;;;;;;;;;;;18.72;83.15;99360.69;4975172;28;859;-66
2022/07/31 00:49:06;;;;;;;;;;;;;;;18.75;83.11;99362.56;4992453;28;1943;-66
2022/07/31 00:51:33;;;;;;;;;;;;;;;18.84;82.87;99364.59;4975072;28;1291;-66
2022/07/31 00:54:00;;;;;;;;;;;;;;;18.89;82.64;99352.75;4992552;28;819;-66
2022/07/31 00:56:27;;;;;;;;;;;;;;;18.88;82.64;99356.81;4992501;28;958;-66
2022/07/31 00:58:56;;;;;;;;;;;;;;;18.90;82.60;99361.91;4992438;28;792;-66
2022/07/31 01:01:22;;;;;;;;;;;;;;;19.01;82.22;99353.81;4975016;28;1269;-66
2022/07/31 01:03:49;;;;;;;;;;;;;;;19.23;81.12;99358.41;4992329;28;882;-66
2022/07/31 01:06:16;;;;;;;;;;;;;;;19.37;80.30;99347.28;4992330;28;815;-66
2022/07/31 01:08:42;;;;;;;;;;;;;;;19.49;79.57;99348.31;4992243;28;1951;-66
2022/07/31 01:11:12;;;;;;;;;;;;;;;19.65;78.70;99358.38;4992293;28;870;-66
2022/07/31 01:13:39;;;;;;;;;;;;;;;19.67;78.13;99343.84;4992309;28;827;-66
2022/07/31 01:16:06;;;;;;;;;;;;;;;19.62;77.98;99347.31;4992290;28;835;-66
2022/07/31 01:18:35;;;;;;;;;;;;;;;19.58;77.93;99351.06;4992137;28;811;-66
2022/07/31 01:21:03;;;;;;;;;;;;;;;19.54;77.80;99352.50;4992225;28;855;-66
2022/07/31 01:23:41;;;;;;;;;;;;;;;19.44;78.10;99346.16;4992169;28;883;-66
2022/07/31 01:26:19;;;;;;;;;;;;;;;19.41;78.16;99349.13;4992101;28;835;-66
2022/07/31 01:28:55;;;;;;;;;;;;;;;19.38;78.50;99348.06;4992120;28;1953;-66
2022/07/31 01:31:29;;;;;;;;;;;;;;;19.34;78.83;99342.63;4992255;28;783;-66
2022/07/31 01:34:07;;;;;;;;;;;;;;;19.29;79.08;99345.31;4992563;28;1014;-66
2022/07/31 01:36:36;;;;;;;;;;;;;;;19.25;79.54;99337.06;4974322;28;1393;-66
2022/07/31 01:39:03;;;;;;;;;;;;;;;19.18;79.80;99329.00;4992362;28;787;-66
2022/07/31 01:41:32;;;;;;;;;;;;;;;19.12;80.25;99326.06;4992226;28;835;-66
2022/07/31 01:44:02;;;;;;;;;;;;;;;19.05;80.60;99323.59;4991955;28;939;-66
2022/07/31 01:46:30;;;;;;;;;;;;;;;19.05;81.25;99314.44;4974516;28;1177;-66
2022/07/31 01:48:56;;;;;;;;;;;;;;;19.11;81.44;99316.09;4991811;28;1978;-66
2022/07/31 01:51:24;;;;;;;;;;;;;;;19.12;81.64;99314.09;4992063;28;811;-66
2022/07/31 01:53:53;;;;;;;;;;;;;;;19.15;82.15;99313.16;4992118;28;791;-66
2022/07/31 01:56:20;;;;;;;;;;;;;;;19.26;82.13;99307.78;4991871;28;803;-66
2022/07/31 01:58:47;;;;;;;;;;;;;;;19.32;82.03;99305.91;4991785;28;914;-66
2022/07/31 02:01:14;;;;;;;;;;;;;;;19.44;82.02;99306.16;4991865;28;878;-66
2022/07/31 02:03:42;;;;;;;;;;;;;;;19.42;82.27;99294.66;4991773;28;858;-66
2022/07/31 02:06:09;;;;;;;;;;;;;;;19.43;82.53;99294.16;4992028;28;827;-67
2022/07/31 02:08:37;;;;;;;;;;;;;;;19.64;82.51;99302.78;4991626;28;1953;-66
2022/07/31 02:11:04;;;;;;;;;;;;;;;20.04;81.48;99290.38;4974300;28;1323;-66
2022/07/31 02:13:31;;;;;;;;;;;;;;;20.42;80.08;99288.75;4991756;28;823;-67
2022/07/31 02:15:58;;;;;;;;;;;;;;;20.71;79.02;99282.41;4974274;28;901;-66
2022/07/31 02:18:25;;;;;;;;;;;;;;;20.99;77.74;99280.03;4991637;28;883;-66
2022/07/31 02:20:52;;;;;;;;;;;;;;;21.14;76.59;99269.53;4991862;28;875;-66
2022/07/31 02:23:18;;;;;;;;;;;;;;;21.22;75.73;99278.34;4976306;28;1301;-66
2022/07/31 02:25:46;;;;;;;;;;;;;;;21.33;75.18;99275.69;4995256;28;811;-66
2022/07/31 02:28:14;;;;;;;;;;;;;;;21.40;74.82;99274.50;4977605;28;1886;-65
2022/07/31 02:30:42;;;;;;;;;;;;;;;21.41;74.61;99276.06;4995102;28;804;-66
2022/07/31 02:33:23;;;;;;;;;;;;;;;21.44;74.50;99275.09;4995220;28;908;-66
2022/07/31 02:35:52;;;;;;;;;;;;;;;21.51;73.92;99266.28;4994812;28;1251;-65
2022/07/31 02:38:21;;;;;;;;;;;;;;;21.54;73.42;99265.28;4995006;28;882;-66
2022/07/31 02:40:49;;;;;;;;;;;;;;;21.57;73.50;99266.31;4994973;28;796;-66
2022/07/31 02:43:16;;;;;;;;;;;;;;;21.63;72.98;99257.97;4977427;28;1204;-65
2022/07/31 02:45:43;;;;;;;;;;;;;;;21.69;73.03;99258.81;4994889;28;839;-65
2022/07/31 02:48:10;;;;;;;;;;;;;;;21.71;72.74;99254.25;4994710;28;1972;-66
2022/07/31 02:50:37;;;;;;;;;;;;;;;21.71;72.54;99251.44;4994727;28;867;-65
2022/07/31 02:53:03;;;;;;;;;;;;;;;21.73;72.46;99246.09;4994754;28;877;-66
2022/07/31 02:55:30;;;;;;;;;;;;;;;21.77;72.40;99246.66;4977230;28;1447;-65
2022/07/31 02:57:57;;;;;;;;;;;;;;;21.77;72.52;99240.25;4992375;28;1451;-65
2022/07/31 03:00:25;;;;;;;;;;;;;;;21.75;72.66;99243.56;4994568;28;843;-65
2022/07/31 03:02:54;;;;;;;;;;;;;;;21.73;72.78;99250.94;4994528;28;807;-65
2022/07/31 03:05:21;;;;;;;;;;;;;;;21.72;72.71;99249.38;4994513;28;997;-65
2022/07/31 03:07:47;;;;;;;;;;;;;;;21.75;72.85;99243.56;4994735;28;788;-65
2022/07/31 03:10:14;;;;;;;;;;;;;;;21.78;72.63;99247.41;4994395;28;1953;-65
2022/07/31 03:12:42;;;;;;;;;;;;;;;21.81;72.48;99260.50;4994339;28;799;-65
2022/07/31 03:15:11;;;;;;;;;;;;;;;21.89;72.13;99253.19;4994346;28;811;-65
2022/07/31 03:17:39;;;;;;;;;;;;;;;21.98;71.95;99255.06;4976694;28;1229;-65
2022/07/31 03:20:07;;;;;;;;;;;;;;;21.99;72.03;99259.41;4994248;28;820;-65
2022/07/31 03:22:33;;;;;;;;;;;;;;;22.07;71.64;99254.16;4976783;28;1344;-65
2022/07/31 03:25:01;;;;;;;;;;;;;;;22.10;71.60;99258.78;4994245;28;866;-65
2022/07/31 03:27:28;;;;;;;;;;;;;;;22.06;71.69;99258.97;4994091;28;901;-65
2022/07/31 03:29:55;;;;;;;;;;;;;;;22.03;71.86;99257.94;4976499;28;1886;-66
2022/07/31 03:32:22;;;;;;;;;;;;;;;22.04;71.85;99247.47;4976521;28;920;-66
2022/07/31 03:34:48;;;;;;;;;;;;;;;22.09;71.63;99255.19;4992928;28;811;-65
2022/07/31 03:37:14;;;;;;;;;;;;;;;22.12;71.43;99253.41;4976245;28;1251;-66
2022/07/31 03:39:41;;;;;;;;;;;;;;;22.17;71.32;99244.28;4993850;28;847;-65
2022/07/31 03:42:12;;;;;;;;;;;;;;;22.20;71.51;99246.09;4993771;28;850;-65
2022/07/31 03:44:39;;;;;;;;;;;;;;;22.25;71.42;99253.06;4993738;28;810;-66
2022/07/31 03:47:06;;;;;;;;;;;;;;;22.31;71.04;99242.63;4993892;28;874;-65
2022/07/31 03:49:33;;;;;;;;;;;;;;;22.41;70.92;99235.56;4993627;28;1926;-65
2022/07/31 03:52:00;;;;;;;;;;;;;;;22.48;70.52;99242.78;4993569;28;843;-65
2022/07/31 03:54:27;;;;;;;;;;;;;;;22.53;70.64;99230.78;4993613;28;878;-65
2022/07/31 03:56:55;;;;;;;;;;;;;;;22.59;70.38;99231.63;4993649;28;836;-65
2022/07/31 03:59:24;;;;;;;;;;;;;;;22.70;70.03;99233.75;4993542;28;859;-64
2022/07/31 04:01:52;;;;;;;;;;;;;;;22.79;69.76;99225.13;4993691;28;808;-65
2022/07/31 04:04:18;;;;;;;;;;;;;;;22.88;69.18;99219.28;4993582;28;901;-65
2022/07/31 04:06:44;;;;;;;;;;;;;;;22.95;68.73;99223.69;4993631;28;800;-65
2022/07/31 04:09:11;;;;;;;;;;;;;;;23.01;68.56;99225.28;4993608;28;1949;-65
2022/07/31 04:11:38;;;;;;;;;;;;;;;23.08;68.21;99234.56;4993974;28;814;-65
2022/07/31 04:14:04;;;;;;;;;;;;;;;23.16;68.21;99233.59;4993239;28;907;-65
2022/07/31 04:16:31;;;;;;;;;;;;;;;23.24;67.74;99236.72;4993056;28;807;-65
2022/07/31 04:18:58;;;;;;;;;;;;;;;23.34;67.56;99228.81;4993085;28;780;-65
2022/07/31 04:21:25;;;;;;;;;;;;;;;23.43;67.20;99231.44;4993077;28;827;-65
2022/07/31 04:23:51;;;;;;;;;;;;;;;23.55;66.87;99220.97;4992945;28;846;-65
2022/07/31 04:26:19;;;;;;;;;;;;;;;23.64;66.46;99229.19;4992994;28;897;-66
2022/07/31 04:28:46;;;;;;;;;;;;;;;23.74;66.02;99227.69;4992925;28;1922;-65
2022/07/31 04:31:12;;;;;;;;;;;;;;;23.87;65.66;99227.25;4992871;28;803;-65
2022/07/31 04:33:39;;;;;;;;;;;;;;;23.97;65.41;99239.09;4993163;28;916;-65
2022/07/31 04:36:06;;;;;;;;;;;;;;;24.08;64.66;99233.47;4992644;28;1422;-65
2022/07/31 04:38:32;;;;;;;;;;;;;;;24.16;64.55;99230.94;4992793;28;819;-65
2022/07/31 04:40:59;;;;;;;;;;;;;;;24.25;64.21;99239.16;4992749;28;866;-65
2022/07/31 04:43:26;;;;;;;;;;;;;;;24.34;64.02;99232.47;4992612;28;823;-66
2022/07/31 04:45:53;;;;;;;;;;;;;;;24.39;63.38;99220.44;4992489;28;807;-65
2022/07/31 04:48:20;;;;;;;;;;;;;;;24.44;63.19;99222.50;4992530;28;1922;-65
2022/07/31 04:50:47;;;;;;;;;;;;;;;24.58;62.71;99227.16;4992553;28;854;-65
2022/07/31 04:53:13;;;;;;;;;;;;;;;24.69;62.24;99225.59;4992828;28;906;-66
2022/07/31 04:55:40;;;;;;;;;;;;;;;24.77;62.26;99235.88;4992554;28;828;-66
2022/07/31 04:58:07;;;;;;;;;;;;;;;24.91;61.44;99238.94;4974932;28;1198;-65
2022/07/31 05:00:34;;;;;;;;;;;;;;;25.14;60.97;99234.03;4992452;28;807;-65
2022/07/31 05:02:59;;;;;;;;;;;;;;;25.18;60.84;99243.78;4992341;28;829;-65
2022/07/31 05:05:27;;;;;;;;;;;;;;;25.16;60.91;99237.09;4992401;28;800;-65
2022/07/31 05:07:54;;;;;;;;;;;;;;;25.15;60.95;99235.56;4992386;28;803;-65
2022/07/31 05:13:06;;;;;;;;;;;;;;;25.26;60.75;99241.19;4992672;28;617;-65
2022/07/31 05:15:33;;;;;;;;;;;;;;;25.33;60.67;99242.72;4992322;28;984;-65
2022/07/31 05:17:59;;;;;;;;;;;;;;;25.41;60.67;99236.03;4992292;28;901;-64
2022/07/31 05:20:26;;;;;;;;;;;;;;;25.51;59.50;99239.34;4992270;28;977;-66
2022/07/31 05:22:54;;;;;;;;;;;;;;;25.60;59.02;99232.59;4992210;28;858;-65
2022/07/31 05:25:20;;;;;;;;;;;;;;;25.74;58.68;99231.53;4992355;28;787;-64
2022/07/31 05:27:47;;;;;;;;;;;;;;;25.90;58.18;99234.81;4992323;28;862;-64
2022/07/31 05:30:14;;;;;;;;;;;;;;;25.93;57.71;99222.47;4992275;28;1953;-63
2022/07/31 05:32:45;;;;;;;;;;;;;;;25.93;57.66;99230.94;4992218;28;922;-64
2022/07/31 05:35:11;;;;;;;;;;;;;;;25.99;57.29;99228.84;4992111;28;831;-64
2022/07/31 05:37:38;;;;;;;;;;;;;;;26.20;56.99;99229.22;4974304;28;1343;-65
2022/07/31 05:40:05;;;;;;;;;;;;;;;26.39;56.23;99230.13;4974637;28;1198;-64
2022/07/31 05:42:44;;;;;;;;;;;;;;;26.45;55.43;99218.75;4992198;28;881;-66
2022/07/31 05:45:11;;;;;;;;;;;;;;;26.59;54.69;99222.53;4991827;28;874;-63
2022/07/31 05:47:37;;;;;;;;;;;;;;;26.78;54.37;99231.13;4992063;28;874;-65
2022/07/31 05:50:05;;;;;;;;;;;;;;;27.09;53.76;99219.22;4974472;28;1914;-64
2022/07/31 05:52:32;;;;;;;;;;;;;;;27.66;52.44;99225.03;4991940;28;858;-65
2022/07/31 05:54:58;;;;;;;;;;;;;;;28.36;50.44;99224.34;4991920;28;842;-64
2022/07/31 05:57:25;;;;;;;;;;;;;;;28.98;48.45;99223.34;4992774;28;854;-64
2022/07/31 05:59:51;;;;;;;;;;;;;;;29.72;46.61;99228.38;4978237;28;1154;-64
2022/07/31 06:02:18;;;;;;;;;;;;;;;30.31;45.60;99236.69;4995738;28;839;-65
2022/07/31 06:04:44;;;;;;;;;;;;;;;30.79;43.60;99240.19;4995634;28;804;-64
2022/07/31 06:07:13;;;;;;;;;;;;;;;31.34;43.56;99240.03;4995579;28;882;-66
2022/07/31 06:09:39;;;;;;;;;;;;;;;31.46;42.88;99231.94;4995699;28;1890;-66
2022/07/31 06:12:06;;;;;;;;;;;;;;;31.47;42.45;99244.91;4995454;28;792;-63
2022/07/31 06:14:32;;;;;;;;;;;;;;;31.85;41.46;99230.03;4995400;28;835;-66
2022/07/31 06:16:58;;;;;;;;;;;;;;;32.06;40.63;99235.66;4995389;28;811;-64
2022/07/31 06:19:25;;;;;;;;;;;;;;;31.89;41.19;99241.84;4995501;28;835;-66
2022/07/31 06:21:51;;;;;;;;;;;;;;;31.43;42.24;99238.78;4978020;28;1155;-65
2022/07/31 06:24:18;;;;;;;;;;;;;;;31.47;42.29;99252.69;4995732;28;863;-62
2022/07/31 06:26:45;;;;;;;;;;;;;;;31.28;42.58;99235.78;4995717;28;780;-65
2022/07/31 06:29:11;;;;;;;;;;;;;;;31.54;42.43;99232.75;4995347;28;1886;-65
2022/07/31 06:31:38;;;;;;;;;;;;;;;32.00;41.29;99226.47;4977784;28;796;-65
2022/07/31 06:34:04;;;;;;;;;;;;;;;32.82;40.66;99233.47;4995163;28;909;-64
2022/07/31 06:36:37;;;;;;;;;;;;;;;33.27;38.69;99224.13;4967932;28;1323;-64
2022/07/31 06:42:17;;;;;;;;;;;;;;;33.81;37.39;99226.06;4971992;28;1187;-63
2022/07/31 06:44:44;;;;;;;;;;;;;;;33.62;38.18;99229.41;4975480;28;847;-64
2022/07/31 06:47:10;;;;;;;;;;;;;;;33.51;37.89;99234.16;4975383;28;847;-63
2022/07/31 06:49:37;;;;;;;;;;;;;;;32.68;39.12;99225.09;4975305;28;1918;-64
2022/07/31 06:55:07;;;;;;;;;;;;;;;33.20;38.34;99227.75;4975507;28;638;-64
2022/07/31 06:57:34;;;;;;;;;;;;;;;33.10;38.87;99235.41;4957904;28;856;-64
2022/07/31 07:00:01;;;;;;;;;;;;;;;33.35;37.98;99233.47;4975455;28;843;-61
2022/07/31 07:02:27;;;;;;;;;;;;;;;33.76;37.06;99237.19;4975289;28;789;-65
2022/07/31 07:04:53;;;;;;;;;;;;;;;33.75;36.96;99232.00;4975340;28;844;-66
2022/07/31 07:07:20;;;;;;;;;;;;;;;33.74;37.44;99230.50;4975361;28;863;-64
2022/07/31 07:09:46;;;;;;;;;;;;;;;34.18;36.56;99230.09;4975142;28;1944;-64
2022/07/31 07:12:13;;;;;;;;;;;;;;;34.51;35.99;99236.59;4974816;28;815;-66
2022/07/31 07:14:40;;;;;;;;;;;;;;;33.56;37.05;99235.31;4974957;28;812;-64
2022/07/31 07:17:07;;;;;;;;;;;;;;;32.85;37.97;99229.50;4974916;28;851;-65
2022/07/31 07:19:34;;;;;;;;;;;;;;;32.33;38.68;99241.81;4957472;28;1169;-65
2022/07/31 07:22:01;;;;;;;;;;;;;;;32.50;39.34;99246.25;4974784;28;807;-64
2022/07/31 07:24:28;;;;;;;;;;;;;;;33.18;37.64;99241.13;4974939;28;883;-64
2022/07/31 07:26:54;;;;;;;;;;;;;;;32.67;38.44;99237.88;4974949;28;828;-65
2022/07/31 07:29:21;;;;;;;;;;;;;;;32.31;38.93;99240.88;4974589;28;1914;-65
2022/07/31 07:31:47;;;;;;;;;;;;;;;32.91;37.64;99238.66;4974701;28;823;-65
2022/07/31 07:34:14;;;;;;;;;;;;;;;32.62;38.32;99241.69;4972763;28;1374;-66
2022/07/31 07:36:41;;;;;;;;;;;;;;;32.52;38.49;99238.59;4985197;28;1306;-63
2022/07/31 07:39:14;;;;;;;;;;;;;;;32.86;37.24;99228.94;4993933;28;819;-65
2022/07/31 07:41:40;;;;;;;;;;;;;;;34.02;35.27;99232.28;4993889;28;815;-65
2022/07/31 07:44:06;;;;;;;;;;;;;;;33.80;34.75;99239.66;4994000;28;831;-64
2022/07/31 07:46:34;;;;;;;;;;;;;;;33.04;36.23;99231.97;4994088;28;783;-66
2022/07/31 07:49:00;;;;;;;;;;;;;;;32.41;38.00;99238.97;4994052;28;1966;-66
2022/07/31 07:51:27;;;;;;;;;;;;;;;32.54;38.23;99235.22;4994211;28;843;-66
2022/07/31 07:53:54;;;;;;;;;;;;;;;32.50;38.69;99232.69;4993890;28;866;-65
2022/07/31 07:56:20;;;;;;;;;;;;;;;33.04;38.11;99231.97;4993928;28;787;-66
2022/07/31 07:58:48;;;;;;;;;;;;;;;34.20;36.07;99230.28;4993629;28;815;-66
2022/07/31 08:01:15;;;;;;;;;;;;;;;33.54;36.89;99237.97;4993994;28;772;-66
2022/07/31 08:03:42;;;;;;;;;;;;;;;32.58;38.94;99235.56;4993651;28;851;-66
2022/07/31 08:06:08;;;;;;;;;;;;;;;31.84;40.19;99244.88;4994194;28;847;-65
2022/07/31 08:08:35;;;;;;;;;;;;;;;31.14;41.04;99235.16;4993687;28;1886;-65
2022/07/31 08:11:03;;;;;;;;;;;;;;;30.53;42.45;99247.56;4993608;28;820;-65
2022/07/31 08:13:30;;;;;;;;;;;;;;;29.92;42.77;99247.63;4993550;28;815;-66
2022/07/31 08:15:57;;;;;;;;;;;;;;;29.58;43.72;99247.56;4993599;28;870;-65
2022/07/31 08:18:24;;;;;;;;;;;;;;;29.25;44.30;99249.75;4993622;28;847;-65
2022/07/31 08:20:50;;;;;;;;;;;;;;;28.94;45.00;99244.88;4992851;28;831;-66
2022/07/31 08:35:33;;;;;;;;;;;;;;;28.12;45.39;99253.63;4993094;28;1158;-66
2022/07/31 08:41:05;;;;;;;;;;;;;;;28.02;45.59;99247.56;4990229;28;1064;-66
2022/07/31 08:46:39;;;;;;;;;;;;;;;27.86;45.55;99252.16;4992754;28;677;-66
2022/07/31 08:52:10;;;;;;;;;;;;;;;27.99;45.63;99253.56;4992925;28;622;-67
2022/07/31 08:54:44;;;;;;;;;;;;;;;28.13;45.37;99246.66;4975056;28;1197;-64
2022/07/31 09:00:21;;;;;;;;;;;;;;;28.37;44.92;99248.59;4992611;28;668;-66
2022/07/31 09:02:48;;;;;;;;;;;;;;;28.29;44.45;99256.22;4992449;28;811;-68
2022/07/31 09:05:24;;;;;;;;;;;;;;;28.26;45.06;99265.81;4992437;28;807;-66
2022/07/31 09:07:50;;;;;;;;;;;;;;;28.41;44.35;99253.97;4992388;28;862;-66
2022/07/31 09:22:30;;;;;;;;;;;;;;;30.11;42.26;99252.41;4992536;28;618;-64
2022/07/31 09:25:10;;;;;;;;;;;;;;;30.23;41.46;99242.28;4992442;28;791;-65
2022/07/31 09:27:37;;;;;;;;;;;;;;;30.08;41.40;99242.88;4992164;28;819;-65
2022/07/31 09:30:07;;;;;;;;;;;;;;;30.26;41.34;99246.88;4992101;28;1890;-65
2022/07/31 09:33:10;;;;;;;;;;;;;;;30.69;40.76;99242.75;4993576;28;894;-67
2022/07/31 09:36:08;;;;;;;;;;;;;;;31.35;39.79;99243.66;4996024;28;1256;-64
2022/07/31 09:38:46;;;;;;;;;;;;;;;31.69;38.67;99231.31;4959195;28;1412;-64
2022/07/31 09:41:13;;;;;;;;;;;;;;;31.93;38.66;99230.81;4959125;28;1213;-64
2022/07/31 09:44:04;;;;;;;;;;;;;;;32.30;37.60;99230.75;4976550;28;843;-66
2022/07/31 09:49:42;;;;;;;;;;;;;;;31.93;37.14;99233.66;4976536;28;1910;-64
2022/07/31 09:55:14;;;;;;;;;;;;;;;31.84;36.84;99242.03;4976427;28;673;-65
2022/07/31 09:58:03;;;;;;;;;;;;;;;31.77;37.50;99249.22;4976304;28;874;-65
2022/07/31 10:00:32;;;;;;;;;;;;;;;31.88;37.13;99228.91;4991482;28;1399;-65
2022/07/31 10:38:04;;;;;;;;;;;;;;;31.79;36.83;99203.72;4956358;29;1080;-67
2022/07/31 10:40:47;;;;;;;;;;;;;;;31.85;37.04;99209.25;4956224;29;846;-65
2022/07/31 10:43:37;;;;;;;;;;;;;;;32.48;36.59;99203.16;4956525;28;816;-66
2022/07/31 10:46:04;;;;;;;;;;;;;;;32.89;36.12;99201.25;4956607;29;831;-65
2022/07/31 10:48:34;;;;;;;;;;;;;;;33.16;34.95;99201.63;4956088;29;1975;-67
2022/07/31 10:51:06;;;;;;;;;;;;;;;33.53;35.67;99211.44;4956249;29;866;-67
2022/07/31 10:53:32;;;;;;;;;;;;;;;33.73;34.97;99201.06;4956070;29;804;-66
2022/07/31 10:56:02;;;;;;;;;;;;;;;33.94;34.41;99197.16;4956051;29;821;-66
2022/07/31 10:58:29;;;;;;;;;;;;;;;33.90;34.26;99203.28;4955986;29;799;-66
2022/07/31 11:13:09;;;;;;;;;;;;;;;35.00;33.25;99187.63;4956082;29;610;-66
2022/07/31 11:15:43;;;;;;;;;;;;;;;34.96;33.13;99188.78;4955727;29;886;-67
2022/07/31 11:18:14;;;;;;;;;;;;;;;34.58;33.25;99177.63;4955620;29;846;-66
2022/07/31 11:20:48;;;;;;;;;;;;;;;34.63;33.32;99165.19;4955829;29;863;-67
2022/07/31 11:23:23;;;;;;;;;;;;;;;34.70;33.11;99170.09;4955571;29;816;-67
2022/07/31 11:25:50;;;;;;;;;;;;;;;34.91;32.64;99169.72;4955477;29;994;-66
2022/07/31 11:28:22;;;;;;;;;;;;;;;35.12;32.41;99172.19;4938196;29;1294;-67
2022/07/31 11:33:56;;;;;;;;;;;;;;;36.46;31.44;99157.78;4966896;28;1110;-67
2022/07/31 11:36:28;;;;;;;;;;;;;;;36.99;30.58;99156.09;4955291;29;839;-66
2022/07/31 11:39:26;;;;;;;;;;;;;;;36.56;29.97;99152.06;4955406;29;878;-68
2022/07/31 11:42:01;;;;;;;;;;;;;;;35.02;32.21;99156.22;4955259;29;830;-66
2022/07/31 11:44:57;;;;;;;;;;;;;;;33.42;34.46;99153.84;4955081;29;894;-66
2022/07/31 11:47:44;;;;;;;;;;;;;;;32.03;36.02;99145.34;4951011;29;1194;-66
2022/07/31 11:50:12;;;;;;;;;;;;;;;32.45;36.97;99158.53;4953654;29;1982;-66
2022/07/31 11:52:42;;;;;;;;;;;;;;;33.44;35.06;99159.75;4955273;29;879;-67
2022/07/31 11:58:18;;;;;;;;;;;;;;;33.20;35.53;99146.84;4954798;29;1375;-67
2022/07/31 12:13:11;;;;;;;;;;;;;;;32.62;35.97;99130.13;4954973;29;614;-67
2022/07/31 12:16:07;;;;;;;;;;;;;;;32.44;37.03;99132.03;4954963;29;866;-66
2022/07/31 12:18:55;;;;;;;;;;;;;;;32.08;37.39;99127.25;4954445;29;1053;-65
2022/07/31 12:21:30;;;;;;;;;;;;;;;31.85;37.72;99123.56;4954500;29;811;-65
2022/07/31 12:23:57;;;;;;;;;;;;;;;31.60;38.50;99141.22;4937159;29;1329;-64
2022/07/31 12:26:25;;;;;;;;;;;;;;;31.43;38.89;99129.50;4954325;29;862;-66
2022/07/31 12:29:00;;;;;;;;;;;;;;;31.42;38.72;99122.25;4954336;29;1954;-66
2022/07/31 12:31:27;;;;;;;;;;;;;;;31.36;39.30;99115.94;4954284;29;964;-66
2022/07/31 12:33:56;;;;;;;;;;;;;;;31.13;39.70;99117.38;4954330;29;791;-66
2022/07/31 12:36:23;;;;;;;;;;;;;;;30.85;40.98;99123.06;4954278;29;808;-66
2022/07/31 12:39:01;;;;;;;;;;;;;;;30.66;41.27;99124.13;4954224;29;811;-67
2022/07/31 12:44:34;;;;;;;;;;;;;;;30.46;41.47;99117.09;4954134;29;692;-66
2022/07/31 12:47:00;;;;;;;;;;;;;;;30.56;41.35;99117.38;4954033;29;787;-66
2022/07/31 12:49:27;;;;;;;;;;;;;;;31.38;40.10;99099.78;4954184;29;1922;-66
2022/07/31 12:51:54;;;;;;;;;;;;;;;34.07;36.77;99107.25;4954038;29;878;-66
2022/07/31 12:54:29;;;;;;;;;;;;;;;36.06;33.52;99100.66;4953947;29;847;-66
2022/07/31 12:56:59;;;;;;;;;;;;;;;36.69;31.27;99099.09;4954612;29;780;-66
2022/07/31 12:59:28;;;;;;;;;;;;;;;35.68;32.54;99107.78;4954007;29;791;-68
2022/07/31 13:01:55;;;;;;;;;;;;;;;34.57;34.16;99110.13;4953865;29;875;-66
2022/07/31 13:04:22;;;;;;;;;;;;;;;33.91;34.97;99101.63;4952522;29;1297;-66
2022/07/31 13:06:50;;;;;;;;;;;;;;;33.96;34.49;99100.63;4953618;28;917;-66
2022/07/31 13:09:16;;;;;;;;;;;;;;;34.64;33.95;99102.81;4953638;29;1962;-67
2022/07/31 13:11:42;;;;;;;;;;;;;;;35.86;32.31;99080.47;4953685;29;859;-66
2022/07/31 13:14:09;;;;;;;;;;;;;;;37.28;30.68;99074.72;4953729;29;839;-66
2022/07/31 13:16:39;;;;;;;;;;;;;;;38.49;29.03;99080.38;4953617;29;844;-68
2022/07/31 13:19:13;;;;;;;;;;;;;;;39.36;27.57;99083.94;4953663;29;847;-67
2022/07/31 13:21:40;;;;;;;;;;;;;;;40.40;26.76;99075.31;4953659;29;871;-67
2022/07/31 13:27:11;;;;;;;;;;;;;;;40.15;25.60;99078.81;4950684;29;1404;-69
2022/07/31 13:29:38;;;;;;;;;;;;;;;40.27;25.34;99079.56;4953515;29;1891;-68
2022/07/31 13:32:05;;;;;;;;;;;;;;;40.12;25.58;99086.63;4936297;29;1199;-68
2022/07/31 13:47:13;;;;;;;;;;;;;;;37.27;27.47;99078.97;4971709;28;1215;-67
2022/07/31 13:49:40;;;;;;;;;;;;;;;37.37;27.24;99078.94;4972511;28;1918;-67
2022/07/31 13:52:18;;;;;;;;;;;;;;;37.67;27.17;99079.66;4972556;28;827;-66
2022/07/31 13:54:45;;;;;;;;;;;;;;;38.00;26.78;99076.94;4955177;28;1165;-67
2022/07/31 13:57:19;;;;;;;;;;;;;;;37.74;26.80;99072.97;4972736;28;827;-69
2022/07/31 14:00:11;;;;;;;;;;;;;;;37.58;26.81;99078.34;4971159;28;1196;-67
2022/07/31 14:14:49;;;;;;;;;;;;;;;36.10;28.53;99072.25;4972651;28;609;-67
2022/07/31 14:17:16;;;;;;;;;;;;;;;36.02;28.98;99072.38;4972338;28;826;-67
2022/07/31 14:19:46;;;;;;;;;;;;;;;36.25;28.82;99072.00;4975077;28;803;-67
2022/07/31 14:22:15;;;;;;;;;;;;;;;35.89;28.92;99070.66;4975975;28;878;-66
2022/07/31 14:24:49;;;;;;;;;;;;;;;34.44;31.09;99081.75;4958520;28;1217;-67
2022/07/31 14:27:19;;;;;;;;;;;;;;;33.07;32.67;99085.59;4976064;28;791;-66
2022/07/31 14:32:50;;;;;;;;;;;;;;;31.30;35.57;99079.00;4976094;28;1047;-67
2022/07/31 14:35:16;;;;;;;;;;;;;;;31.05;35.56;99075.88;4976396;28;819;-67
2022/07/31 14:37:43;;;;;;;;;;;;;;;31.09;35.55;99076.28;4975629;28;846;-67
2022/07/31 14:40:09;;;;;;;;;;;;;;;31.14;35.73;99075.34;4958255;28;1312;-69
2022/07/31 14:42:35;;;;;;;;;;;;;;;31.12;36.23;99075.88;4975620;28;811;-68
2022/07/31 14:45:05;;;;;;;;;;;;;;;31.21;35.88;99076.69;4975518;28;819;-69
2022/07/31 14:47:33;;;;;;;;;;;;;;;31.33;36.31;99072.94;4975427;28;1413;-68
2022/07/31 14:49:59;;;;;;;;;;;;;;;31.42;35.86;99060.19;4975632;28;1906;-68
2022/07/31 14:52:27;;;;;;;;;;;;;;;31.40;35.95;99070.66;4976086;28;823;-67
2022/07/31 14:55:01;;;;;;;;;;;;;;;31.28;36.39;99064.53;4975536;28;807;-67
2022/07/31 14:57:28;;;;;;;;;;;;;;;31.16;36.29;99063.38;4975234;28;862;-69
2022/07/31 14:59:55;;;;;;;;;;;;;;;31.06;36.69;99058.16;4957909;28;887;-68
2022/07/31 15:02:22;;;;;;;;;;;;;;;30.93;37.32;99061.16;4957825;28;1254;-67
2022/07/31 15:04:50;;;;;;;;;;;;;;;30.88;37.48;99053.53;4975507;28;866;-67
2022/07/31 15:07:20;;;;;;;;;;;;;;;30.82;37.54;99053.66;4975103;28;866;-68
2022/07/31 15:09:47;;;;;;;;;;;;;;;30.74;37.96;99050.75;4975058;28;1957;-67
2022/07/31 15:12:21;;;;;;;;;;;;;;;30.63;37.97;99033.97;4975025;28;831;-67
2022/07/31 15:15:05;;;;;;;;;;;;;;;30.58;37.97;99034.91;4974986;28;847;-67
2022/07/31 15:17:32;;;;;;;;;;;;;;;30.56;38.37;99029.00;4974925;28;858;-68
2022/07/31 15:19:58;;;;;;;;;;;;;;;30.49;37.95;99032.53;4974892;28;874;-67
2022/07/31 15:22:25;;;;;;;;;;;;;;;30.40;38.16;99044.47;4974864;28;887;-67
2022/07/31 15:24:54;;;;;;;;;;;;;;;30.33;38.49;99035.28;4974907;28;898;-68
2022/07/31 15:27:43;;;;;;;;;;;;;;;30.14;39.16;99023.34;4974650;28;807;-67
2022/07/31 15:30:09;;;;;;;;;;;;;;;30.15;39.43;99027.75;4974537;28;1879;-67
2022/07/31 15:32:37;;;;;;;;;;;;;;;30.05;39.50;99026.72;4975006;28;946;-67
2022/07/31 15:35:04;;;;;;;;;;;;;;;29.42;41.31;99029.50;4974607;28;835;-67
2022/07/31 15:37:40;;;;;;;;;;;;;;;28.41;44.19;99040.84;4974584;28;835;-67
2022/07/31 15:40:08;;;;;;;;;;;;;;;26.96;48.17;99037.63;4974583;28;824;-67
2022/07/31 15:42:36;;;;;;;;;;;;;;;25.74;53.62;99038.31;4974481;28;870;-67
2022/07/31 15:45:04;;;;;;;;;;;;;;;25.39;56.78;99037.78;4974403;28;871;-69
2022/07/31 15:47:31;;;;;;;;;;;;;;;25.56;57.76;99034.84;4974273;28;1457;-69